sensor_id;sensor_type;location;lat;lon;timestamp;P1;durP1;ratioP1;P2;durP2;ratioP2
65558;SDS011;52203;51.998;5.140;2023-07-22T00:00:49;20.30;;;9.85;;
65558;SDS011;52203;51.998;5.140;2023-07-22T00:03:14;19.88;;;9.75;;
65558;SDS011;52203;51.998;5.140;2023-07-22T00:05:40;18.60;;;8.93;;
65558;SDS011;52203;51.998;5.140;2023-07-22T00:08:05;21.90;;;10.75;;
65558;SDS011;52203;51.998;5.140;2023-07-22T00:10:31;22.55;;;10.18;;
65558;SDS011;52203;51.998;5.140;2023-07-22T00:12:57;21.25;;;9.48;;
65558;SDS011;52203;51.998;5.140;2023-07-22T00:15:22;19.70;;;9.23;;
65558;SDS011;52203;51.998;5.140;2023-07-22T00:17:49;20.63;;;9.20;;
65558;SDS011;52203;51.998;5.140;2023-07-22T00:20:15;24.38;;;9.77;;
65558;SDS011;52203;51.998;5.140;2023-07-22T00:22:41;24.75;;;10.80;;
65558;SDS011;52203;51.998;5.140;2023-07-22T00:25:07;26.08;;;10.35;;
65558;SDS011;52203;51.998;5.140;2023-07-22T00:27:37;21.75;;;10.50;;
65558;SDS011;52203;51.998;5.140;2023-07-22T00:30:06;22.00;;;10.88;;
65558;SDS011;52203;51.998;5.140;2023-07-22T00:32:32;23.05;;;9.95;;
65558;SDS011;52203;51.998;5.140;2023-07-22T00:34:58;19.73;;;9.73;;
65558;SDS011;52203;51.998;5.140;2023-07-22T00:37:23;22.42;;;10.75;;
65558;SDS011;52203;51.998;5.140;2023-07-22T00:39:50;19.85;;;9.40;;
65558;SDS011;52203;51.998;5.140;2023-07-22T00:42:16;20.85;;;9.88;;
65558;SDS011;52203;51.998;5.140;2023-07-22T00:44:41;21.48;;;9.93;;
65558;SDS011;52203;51.998;5.140;2023-07-22T00:47:07;20.38;;;9.10;;
65558;SDS011;52203;51.998;5.140;2023-07-22T00:49:33;22.77;;;9.25;;
65558;SDS011;52203;51.998;5.140;2023-07-22T00:52:00;19.75;;;8.80;;
65558;SDS011;52203;51.998;5.140;2023-07-22T00:54:30;18.48;;;8.52;;
65558;SDS011;52203;51.998;5.140;2023-07-22T00:56:56;22.83;;;10.43;;
65558;SDS011;52203;51.998;5.140;2023-07-22T00:59:22;17.00;;;8.70;;
65558;SDS011;52203;51.998;5.140;2023-07-22T01:01:48;17.27;;;8.38;;
65558;SDS011;52203;51.998;5.140;2023-07-22T01:04:14;20.00;;;9.65;;
65558;SDS011;52203;51.998;5.140;2023-07-22T01:06:43;20.27;;;8.80;;
65558;SDS011;52203;51.998;5.140;2023-07-22T01:09:09;18.65;;;8.80;;
65558;SDS011;52203;51.998;5.140;2023-07-22T01:11:35;20.42;;;9.32;;
65558;SDS011;52203;51.998;5.140;2023-07-22T01:14:01;20.10;;;9.73;;
65558;SDS011;52203;51.998;5.140;2023-07-22T01:16:27;19.70;;;9.18;;
65558;SDS011;52203;51.998;5.140;2023-07-22T01:18:53;21.65;;;9.60;;
65558;SDS011;52203;51.998;5.140;2023-07-22T01:21:21;19.92;;;8.90;;
65558;SDS011;52203;51.998;5.140;2023-07-22T01:23:48;19.17;;;9.35;;
65558;SDS011;52203;51.998;5.140;2023-07-22T01:26:13;19.95;;;8.98;;
65558;SDS011;52203;51.998;5.140;2023-07-22T01:28:39;19.48;;;9.43;;
65558;SDS011;52203;51.998;5.140;2023-07-22T01:31:05;18.13;;;8.20;;
65558;SDS011;52203;51.998;5.140;2023-07-22T01:33:31;18.20;;;8.55;;
65558;SDS011;52203;51.998;5.140;2023-07-22T01:35:57;19.65;;;8.40;;
65558;SDS011;52203;51.998;5.140;2023-07-22T01:38:22;17.13;;;8.32;;
65558;SDS011;52203;51.998;5.140;2023-07-22T01:40:48;17.70;;;8.50;;
65558;SDS011;52203;51.998;5.140;2023-07-22T01:43:13;20.63;;;9.40;;
65558;SDS011;52203;51.998;5.140;2023-07-22T01:45:39;18.67;;;8.60;;
65558;SDS011;52203;51.998;5.140;2023-07-22T01:48:05;16.23;;;7.75;;
65558;SDS011;52203;51.998;5.140;2023-07-22T01:50:31;15.60;;;7.90;;
65558;SDS011;52203;51.998;5.140;2023-07-22T01:52:57;21.20;;;8.95;;
65558;SDS011;52203;51.998;5.140;2023-07-22T01:55:23;18.75;;;8.38;;
65558;SDS011;52203;51.998;5.140;2023-07-22T01:57:48;19.92;;;8.98;;
65558;SDS011;52203;51.998;5.140;2023-07-22T02:00:14;20.30;;;8.75;;
65558;SDS011;52203;51.998;5.140;2023-07-22T02:02:40;20.60;;;8.57;;
65558;SDS011;52203;51.998;5.140;2023-07-22T02:05:07;21.75;;;9.20;;
65558;SDS011;52203;51.998;5.140;2023-07-22T02:07:35;20.08;;;8.40;;
65558;SDS011;52203;51.998;5.140;2023-07-22T02:10:00;20.83;;;8.20;;
65558;SDS011;52203;51.998;5.140;2023-07-22T02:12:26;16.83;;;8.25;;
65558;SDS011;52203;51.998;5.140;2023-07-22T02:14:51;17.98;;;8.18;;
65558;SDS011;52203;51.998;5.140;2023-07-22T02:17:17;19.80;;;8.32;;
65558;SDS011;52203;51.998;5.140;2023-07-22T02:19:42;20.05;;;7.93;;
65558;SDS011;52203;51.998;5.140;2023-07-22T02:22:08;23.25;;;9.45;;
65558;SDS011;52203;51.998;5.140;2023-07-22T02:24:34;17.40;;;7.93;;
65558;SDS011;52203;51.998;5.140;2023-07-22T02:27:00;19.77;;;8.57;;
65558;SDS011;52203;51.998;5.140;2023-07-22T02:29:25;18.42;;;9.07;;
65558;SDS011;52203;51.998;5.140;2023-07-22T02:31:51;21.13;;;8.27;;
65558;SDS011;52203;51.998;5.140;2023-07-22T02:34:16;20.65;;;8.85;;
65558;SDS011;52203;51.998;5.140;2023-07-22T02:36:42;19.92;;;8.10;;
65558;SDS011;52203;51.998;5.140;2023-07-22T02:39:07;17.42;;;7.47;;
65558;SDS011;52203;51.998;5.140;2023-07-22T02:41:36;17.70;;;8.80;;
65558;SDS011;52203;51.998;5.140;2023-07-22T02:44:01;20.13;;;8.88;;
65558;SDS011;52203;51.998;5.140;2023-07-22T02:46:28;16.45;;;8.07;;
65558;SDS011;52203;51.998;5.140;2023-07-22T02:48:54;18.00;;;7.63;;
65558;SDS011;52203;51.998;5.140;2023-07-22T02:51:20;16.48;;;8.25;;
65558;SDS011;52203;51.998;5.140;2023-07-22T02:53:45;17.00;;;7.32;;
65558;SDS011;52203;51.998;5.140;2023-07-22T02:56:12;17.45;;;8.57;;
65558;SDS011;52203;51.998;5.140;2023-07-22T02:58:37;20.35;;;7.78;;
65558;SDS011;52203;51.998;5.140;2023-07-22T03:01:03;18.60;;;7.88;;
65558;SDS011;52203;51.998;5.140;2023-07-22T03:03:30;17.88;;;7.68;;
65558;SDS011;52203;51.998;5.140;2023-07-22T03:05:58;21.35;;;9.18;;
65558;SDS011;52203;51.998;5.140;2023-07-22T03:08:24;19.35;;;9.23;;
65558;SDS011;52203;51.998;5.140;2023-07-22T03:10:50;19.33;;;9.13;;
65558;SDS011;52203;51.998;5.140;2023-07-22T03:13:16;19.75;;;9.25;;
65558;SDS011;52203;51.998;5.140;2023-07-22T03:15:42;19.02;;;9.25;;
65558;SDS011;52203;51.998;5.140;2023-07-22T03:18:07;20.17;;;8.05;;
65558;SDS011;52203;51.998;5.140;2023-07-22T03:20:35;20.90;;;8.32;;
65558;SDS011;52203;51.998;5.140;2023-07-22T03:23:02;22.95;;;8.55;;
65558;SDS011;52203;51.998;5.140;2023-07-22T03:25:27;18.40;;;8.18;;
65558;SDS011;52203;51.998;5.140;2023-07-22T03:27:53;18.73;;;8.55;;
65558;SDS011;52203;51.998;5.140;2023-07-22T03:30:20;18.00;;;8.63;;
65558;SDS011;52203;51.998;5.140;2023-07-22T03:32:47;23.90;;;9.05;;
65558;SDS011;52203;51.998;5.140;2023-07-22T03:35:15;18.23;;;8.05;;
65558;SDS011;52203;51.998;5.140;2023-07-22T03:37:41;20.88;;;9.45;;
65558;SDS011;52203;51.998;5.140;2023-07-22T03:40:07;18.98;;;8.35;;
65558;SDS011;52203;51.998;5.140;2023-07-22T03:42:41;21.60;;;10.23;;
65558;SDS011;52203;51.998;5.140;2023-07-22T03:45:07;19.73;;;8.80;;
65558;SDS011;52203;51.998;5.140;2023-07-22T03:47:34;21.95;;;8.82;;
65558;SDS011;52203;51.998;5.140;2023-07-22T03:50:00;22.58;;;9.95;;
65558;SDS011;52203;51.998;5.140;2023-07-22T03:52:25;22.35;;;10.20;;
65558;SDS011;52203;51.998;5.140;2023-07-22T03:54:51;22.92;;;9.70;;
65558;SDS011;52203;51.998;5.140;2023-07-22T03:57:17;22.08;;;9.25;;
65558;SDS011;52203;51.998;5.140;2023-07-22T03:59:42;26.20;;;9.70;;
65558;SDS011;52203;51.998;5.140;2023-07-22T04:02:08;25.65;;;10.73;;
65558;SDS011;52203;51.998;5.140;2023-07-22T04:04:33;24.63;;;10.75;;
65558;SDS011;52203;51.998;5.140;2023-07-22T04:06:59;24.85;;;9.65;;
65558;SDS011;52203;51.998;5.140;2023-07-22T04:09:26;27.77;;;10.38;;
65558;SDS011;52203;51.998;5.140;2023-07-22T04:11:52;23.80;;;9.50;;
65558;SDS011;52203;51.998;5.140;2023-07-22T04:14:18;26.13;;;10.38;;
65558;SDS011;52203;51.998;5.140;2023-07-22T04:16:43;28.42;;;10.75;;
65558;SDS011;52203;51.998;5.140;2023-07-22T04:19:09;30.48;;;11.80;;
65558;SDS011;52203;51.998;5.140;2023-07-22T04:21:34;26.88;;;11.52;;
65558;SDS011;52203;51.998;5.140;2023-07-22T04:24:00;24.70;;;11.00;;
65558;SDS011;52203;51.998;5.140;2023-07-22T04:26:25;28.92;;;11.15;;
65558;SDS011;52203;51.998;5.140;2023-07-22T04:28:51;30.88;;;11.30;;
65558;SDS011;52203;51.998;5.140;2023-07-22T04:31:17;27.55;;;11.23;;
65558;SDS011;52203;51.998;5.140;2023-07-22T04:33:43;28.63;;;11.82;;
65558;SDS011;52203;51.998;5.140;2023-07-22T04:36:09;29.45;;;10.75;;
65558;SDS011;52203;51.998;5.140;2023-07-22T04:38:34;28.33;;;11.70;;
65558;SDS011;52203;51.998;5.140;2023-07-22T04:41:00;28.88;;;11.80;;
65558;SDS011;52203;51.998;5.140;2023-07-22T04:43:28;27.48;;;11.32;;
65558;SDS011;52203;51.998;5.140;2023-07-22T04:45:54;28.10;;;10.93;;
65558;SDS011;52203;51.998;5.140;2023-07-22T04:48:20;26.67;;;11.63;;
65558;SDS011;52203;51.998;5.140;2023-07-22T04:50:49;30.05;;;11.20;;
65558;SDS011;52203;51.998;5.140;2023-07-22T04:53:18;26.70;;;11.88;;
65558;SDS011;52203;51.998;5.140;2023-07-22T04:55:44;34.40;;;12.65;;
65558;SDS011;52203;51.998;5.140;2023-07-22T04:58:10;26.55;;;11.07;;
65558;SDS011;52203;51.998;5.140;2023-07-22T05:00:36;30.95;;;12.02;;
65558;SDS011;52203;51.998;5.140;2023-07-22T05:03:03;28.42;;;11.48;;
65558;SDS011;52203;51.998;5.140;2023-07-22T05:05:29;29.10;;;11.77;;
65558;SDS011;52203;51.998;5.140;2023-07-22T05:07:55;29.98;;;12.07;;
65558;SDS011;52203;51.998;5.140;2023-07-22T05:10:21;29.40;;;11.75;;
65558;SDS011;52203;51.998;5.140;2023-07-22T05:12:47;31.88;;;11.45;;
65558;SDS011;52203;51.998;5.140;2023-07-22T05:15:12;31.60;;;11.48;;
65558;SDS011;52203;51.998;5.140;2023-07-22T05:17:39;26.77;;;11.65;;
65558;SDS011;52203;51.998;5.140;2023-07-22T05:20:05;29.05;;;10.85;;
65558;SDS011;52203;51.998;5.140;2023-07-22T05:22:32;28.70;;;12.23;;
65558;SDS011;52203;51.998;5.140;2023-07-22T05:24:57;28.15;;;11.30;;
65558;SDS011;52203;51.998;5.140;2023-07-22T05:27:24;29.40;;;11.23;;
65558;SDS011;52203;51.998;5.140;2023-07-22T05:29:49;28.23;;;11.18;;
65558;SDS011;52203;51.998;5.140;2023-07-22T05:32:15;25.27;;;10.98;;
65558;SDS011;52203;51.998;5.140;2023-07-22T05:34:41;32.60;;;13.65;;
65558;SDS011;52203;51.998;5.140;2023-07-22T05:37:06;29.73;;;11.85;;
65558;SDS011;52203;51.998;5.140;2023-07-22T05:39:32;26.60;;;12.18;;
65558;SDS011;52203;51.998;5.140;2023-07-22T05:41:58;29.83;;;12.02;;
65558;SDS011;52203;51.998;5.140;2023-07-22T05:44:23;31.23;;;11.02;;
65558;SDS011;52203;51.998;5.140;2023-07-22T05:46:49;29.10;;;12.23;;
65558;SDS011;52203;51.998;5.140;2023-07-22T05:49:14;27.88;;;11.63;;
65558;SDS011;52203;51.998;5.140;2023-07-22T05:51:40;29.23;;;11.88;;
65558;SDS011;52203;51.998;5.140;2023-07-22T05:54:05;26.92;;;11.13;;
65558;SDS011;52203;51.998;5.140;2023-07-22T05:56:31;31.95;;;12.70;;
65558;SDS011;52203;51.998;5.140;2023-07-22T05:58:57;27.98;;;11.23;;
65558;SDS011;52203;51.998;5.140;2023-07-22T06:01:25;33.05;;;13.10;;
65558;SDS011;52203;51.998;5.140;2023-07-22T06:03:51;27.95;;;12.52;;
65558;SDS011;52203;51.998;5.140;2023-07-22T06:06:17;31.75;;;12.80;;
65558;SDS011;52203;51.998;5.140;2023-07-22T06:08:42;31.42;;;11.98;;
65558;SDS011;52203;51.998;5.140;2023-07-22T06:11:08;28.17;;;11.32;;
65558;SDS011;52203;51.998;5.140;2023-07-22T06:13:33;33.50;;;11.50;;
65558;SDS011;52203;51.998;5.140;2023-07-22T06:15:59;28.67;;;13.18;;
65558;SDS011;52203;51.998;5.140;2023-07-22T06:18:25;28.25;;;11.95;;
65558;SDS011;52203;51.998;5.140;2023-07-22T06:20:50;32.22;;;12.70;;
65558;SDS011;52203;51.998;5.140;2023-07-22T06:23:16;31.45;;;13.00;;
65558;SDS011;52203;51.998;5.140;2023-07-22T06:25:42;33.67;;;13.45;;
65558;SDS011;52203;51.998;5.140;2023-07-22T06:28:08;26.55;;;12.55;;
65558;SDS011;52203;51.998;5.140;2023-07-22T06:30:33;32.67;;;14.13;;
65558;SDS011;52203;51.998;5.140;2023-07-22T06:32:59;27.23;;;12.52;;
65558;SDS011;52203;51.998;5.140;2023-07-22T06:35:25;30.17;;;12.63;;
65558;SDS011;52203;51.998;5.140;2023-07-22T06:37:50;24.35;;;11.90;;
65558;SDS011;52203;51.998;5.140;2023-07-22T06:40:16;26.40;;;12.20;;
65558;SDS011;52203;51.998;5.140;2023-07-22T06:42:46;26.88;;;11.95;;
65558;SDS011;52203;51.998;5.140;2023-07-22T06:45:12;27.77;;;12.18;;
65558;SDS011;52203;51.998;5.140;2023-07-22T06:47:37;30.08;;;13.05;;
65558;SDS011;52203;51.998;5.140;2023-07-22T06:50:03;29.42;;;12.15;;
65558;SDS011;52203;51.998;5.140;2023-07-22T06:52:32;25.08;;;11.85;;
65558;SDS011;52203;51.998;5.140;2023-07-22T06:54:58;30.98;;;13.13;;
65558;SDS011;52203;51.998;5.140;2023-07-22T06:57:23;26.00;;;12.73;;
65558;SDS011;52203;51.998;5.140;2023-07-22T06:59:51;27.13;;;12.93;;
65558;SDS011;52203;51.998;5.140;2023-07-22T07:02:20;26.98;;;12.23;;
65558;SDS011;52203;51.998;5.140;2023-07-22T07:04:46;24.77;;;11.77;;
65558;SDS011;52203;51.998;5.140;2023-07-22T07:07:12;26.48;;;11.48;;
65558;SDS011;52203;51.998;5.140;2023-07-22T07:09:38;24.95;;;11.77;;
65558;SDS011;52203;51.998;5.140;2023-07-22T07:12:04;25.65;;;12.15;;
65558;SDS011;52203;51.998;5.140;2023-07-22T07:14:32;26.45;;;11.88;;
65558;SDS011;52203;51.998;5.140;2023-07-22T07:16:58;26.40;;;11.88;;
65558;SDS011;52203;51.998;5.140;2023-07-22T07:19:24;24.33;;;10.98;;
65558;SDS011;52203;51.998;5.140;2023-07-22T07:21:50;24.67;;;11.07;;
65558;SDS011;52203;51.998;5.140;2023-07-22T07:24:16;22.60;;;11.70;;
65558;SDS011;52203;51.998;5.140;2023-07-22T07:26:42;22.95;;;11.00;;
65558;SDS011;52203;51.998;5.140;2023-07-22T07:29:08;25.88;;;11.35;;
65558;SDS011;52203;51.998;5.140;2023-07-22T07:31:33;26.45;;;10.70;;
65558;SDS011;52203;51.998;5.140;2023-07-22T07:33:59;24.35;;;10.10;;
65558;SDS011;52203;51.998;5.140;2023-07-22T07:36:24;21.73;;;9.65;;
65558;SDS011;52203;51.998;5.140;2023-07-22T07:38:50;24.98;;;10.55;;
65558;SDS011;52203;51.998;5.140;2023-07-22T07:41:15;23.15;;;9.93;;
65558;SDS011;52203;51.998;5.140;2023-07-22T07:43:41;22.42;;;10.05;;
65558;SDS011;52203;51.998;5.140;2023-07-22T07:48:44;21.10;;;9.77;;
65558;SDS011;52203;51.998;5.140;2023-07-22T07:51:11;23.23;;;9.70;;
65558;SDS011;52203;51.998;5.140;2023-07-22T07:53:38;20.20;;;9.23;;
65558;SDS011;52203;51.998;5.140;2023-07-22T07:56:03;19.63;;;9.80;;
65558;SDS011;52203;51.998;5.140;2023-07-22T07:58:29;18.48;;;9.77;;
65558;SDS011;52203;51.998;5.140;2023-07-22T08:00:55;22.48;;;10.07;;
65558;SDS011;52203;51.998;5.140;2023-07-22T08:03:21;21.27;;;10.02;;
65558;SDS011;52203;51.998;5.140;2023-07-22T08:05:47;21.15;;;9.70;;
65558;SDS011;52203;51.998;5.140;2023-07-22T08:08:12;16.92;;;9.60;;
65558;SDS011;52203;51.998;5.140;2023-07-22T08:10:38;17.23;;;8.40;;
65558;SDS011;52203;51.998;5.140;2023-07-22T08:13:04;18.48;;;9.32;;
65558;SDS011;52203;51.998;5.140;2023-07-22T08:15:36;19.42;;;9.43;;
65558;SDS011;52203;51.998;5.140;2023-07-22T08:18:02;16.77;;;9.23;;
65558;SDS011;52203;51.998;5.140;2023-07-22T08:20:29;18.10;;;8.85;;
65558;SDS011;52203;51.998;5.140;2023-07-22T08:22:55;17.17;;;7.95;;
65558;SDS011;52203;51.998;5.140;2023-07-22T08:25:24;16.42;;;8.93;;
65558;SDS011;52203;51.998;5.140;2023-07-22T08:27:54;17.58;;;8.35;;
65558;SDS011;52203;51.998;5.140;2023-07-22T08:30:19;22.10;;;8.93;;
65558;SDS011;52203;51.998;5.140;2023-07-22T08:32:46;19.20;;;8.70;;
65558;SDS011;52203;51.998;5.140;2023-07-22T08:35:11;17.90;;;8.60;;
65558;SDS011;52203;51.998;5.140;2023-07-22T08:37:37;15.52;;;7.88;;
65558;SDS011;52203;51.998;5.140;2023-07-22T08:40:03;14.68;;;7.45;;
65558;SDS011;52203;51.998;5.140;2023-07-22T08:42:30;14.50;;;7.18;;
65558;SDS011;52203;51.998;5.140;2023-07-22T08:44:58;15.60;;;8.07;;
65558;SDS011;52203;51.998;5.140;2023-07-22T08:47:28;16.00;;;7.53;;
65558;SDS011;52203;51.998;5.140;2023-07-22T08:49:57;13.95;;;7.43;;
65558;SDS011;52203;51.998;5.140;2023-07-22T08:52:26;14.82;;;7.78;;
65558;SDS011;52203;51.998;5.140;2023-07-22T08:54:52;16.63;;;7.30;;
65558;SDS011;52203;51.998;5.140;2023-07-22T08:57:18;14.38;;;7.47;;
65558;SDS011;52203;51.998;5.140;2023-07-22T08:59:44;21.25;;;8.75;;
65558;SDS011;52203;51.998;5.140;2023-07-22T09:02:12;18.95;;;7.60;;
65558;SDS011;52203;51.998;5.140;2023-07-22T09:04:38;16.20;;;8.00;;
65558;SDS011;52203;51.998;5.140;2023-07-22T09:07:06;15.57;;;7.80;;
65558;SDS011;52203;51.998;5.140;2023-07-22T09:09:33;14.95;;;7.53;;
65558;SDS011;52203;51.998;5.140;2023-07-22T09:11:59;14.93;;;7.38;;
65558;SDS011;52203;51.998;5.140;2023-07-22T09:14:26;12.25;;;6.45;;
65558;SDS011;52203;51.998;5.140;2023-07-22T09:16:53;12.52;;;6.47;;
65558;SDS011;52203;51.998;5.140;2023-07-22T09:19:18;19.17;;;7.63;;
65558;SDS011;52203;51.998;5.140;2023-07-22T09:21:44;13.15;;;7.07;;
65558;SDS011;52203;51.998;5.140;2023-07-22T09:24:19;14.30;;;6.75;;
65558;SDS011;52203;51.998;5.140;2023-07-22T09:26:46;11.77;;;6.75;;
65558;SDS011;52203;51.998;5.140;2023-07-22T09:29:12;12.23;;;7.00;;
65558;SDS011;52203;51.998;5.140;2023-07-22T09:31:48;14.65;;;7.05;;
65558;SDS011;52203;51.998;5.140;2023-07-22T09:34:18;13.27;;;7.50;;
65558;SDS011;52203;51.998;5.140;2023-07-22T09:36:56;11.38;;;6.78;;
65558;SDS011;52203;51.998;5.140;2023-07-22T09:39:23;10.90;;;6.05;;
65558;SDS011;52203;51.998;5.140;2023-07-22T09:41:49;10.13;;;5.43;;
65558;SDS011;52203;51.998;5.140;2023-07-22T09:44:15;9.27;;;5.47;;
65558;SDS011;52203;51.998;5.140;2023-07-22T09:46:41;12.70;;;5.55;;
65558;SDS011;52203;51.998;5.140;2023-07-22T09:49:09;9.82;;;5.05;;
65558;SDS011;52203;51.998;5.140;2023-07-22T09:51:38;7.97;;;5.05;;
65558;SDS011;52203;51.998;5.140;2023-07-22T09:54:05;10.95;;;5.25;;
65558;SDS011;52203;51.998;5.140;2023-07-22T09:56:32;16.83;;;7.88;;
65558;SDS011;52203;51.998;5.140;2023-07-22T09:59:07;8.52;;;5.15;;
65558;SDS011;52203;51.998;5.140;2023-07-22T10:01:35;7.75;;;4.97;;
65558;SDS011;52203;51.998;5.140;2023-07-22T10:04:02;10.23;;;5.65;;
65558;SDS011;52203;51.998;5.140;2023-07-22T10:06:29;11.80;;;5.93;;
65558;SDS011;52203;51.998;5.140;2023-07-22T10:08:56;9.23;;;5.45;;
65558;SDS011;52203;51.998;5.140;2023-07-22T10:11:23;9.88;;;5.07;;
65558;SDS011;52203;51.998;5.140;2023-07-22T10:13:52;11.65;;;5.15;;
65558;SDS011;52203;51.998;5.140;2023-07-22T10:16:18;9.15;;;4.60;;
65558;SDS011;52203;51.998;5.140;2023-07-22T10:18:44;9.98;;;5.00;;
65558;SDS011;52203;51.998;5.140;2023-07-22T10:21:12;8.68;;;4.32;;
65558;SDS011;52203;51.998;5.140;2023-07-22T10:23:38;10.45;;;4.82;;
65558;SDS011;52203;51.998;5.140;2023-07-22T10:26:05;7.80;;;4.82;;
65558;SDS011;52203;51.998;5.140;2023-07-22T10:28:31;8.35;;;4.30;;
65558;SDS011;52203;51.998;5.140;2023-07-22T10:30:57;8.77;;;4.80;;
65558;SDS011;52203;51.998;5.140;2023-07-22T10:33:24;9.02;;;4.75;;
65558;SDS011;52203;51.998;5.140;2023-07-22T10:36:04;9.15;;;5.15;;
65558;SDS011;52203;51.998;5.140;2023-07-22T10:38:31;8.43;;;5.20;;
65558;SDS011;52203;51.998;5.140;2023-07-22T10:40:57;8.75;;;5.82;;
65558;SDS011;52203;51.998;5.140;2023-07-22T10:43:24;12.68;;;5.47;;
65558;SDS011;52203;51.998;5.140;2023-07-22T10:45:56;14.87;;;6.13;;
65558;SDS011;52203;51.998;5.140;2023-07-22T10:48:27;11.38;;;5.60;;
65558;SDS011;52203;51.998;5.140;2023-07-22T10:51:04;10.15;;;6.07;;
65558;SDS011;52203;51.998;5.140;2023-07-22T10:53:31;12.70;;;6.47;;
65558;SDS011;52203;51.998;5.140;2023-07-22T10:56:03;12.30;;;6.68;;
65558;SDS011;52203;51.998;5.140;2023-07-22T11:04:09;12.18;;;7.03;;
65558;SDS011;52203;51.998;5.140;2023-07-22T11:11:52;10.13;;;5.70;;
65558;SDS011;52203;51.998;5.140;2023-07-22T11:14:22;8.57;;;5.13;;
65558;SDS011;52203;51.998;5.140;2023-07-22T11:16:49;8.05;;;4.80;;
65558;SDS011;52203;51.998;5.140;2023-07-22T11:19:16;12.23;;;5.53;;
65558;SDS011;52203;51.998;5.140;2023-07-22T11:21:43;9.35;;;5.22;;
65558;SDS011;52203;51.998;5.140;2023-07-22T11:24:09;9.10;;;4.90;;
65558;SDS011;52203;51.998;5.140;2023-07-22T11:26:35;8.90;;;4.70;;
65558;SDS011;52203;51.998;5.140;2023-07-22T11:29:02;10.85;;;4.47;;
65558;SDS011;52203;51.998;5.140;2023-07-22T11:31:39;11.55;;;4.68;;
65558;SDS011;52203;51.998;5.140;2023-07-22T11:34:10;9.00;;;4.25;;
65558;SDS011;52203;51.998;5.140;2023-07-22T11:36:39;9.93;;;4.00;;
65558;SDS011;52203;51.998;5.140;2023-07-22T11:39:08;8.55;;;3.90;;
65558;SDS011;52203;51.998;5.140;2023-07-22T11:41:39;10.07;;;3.97;;
65558;SDS011;52203;51.998;5.140;2023-07-22T11:44:08;9.52;;;3.90;;
65558;SDS011;52203;51.998;5.140;2023-07-22T11:46:46;10.80;;;4.20;;
65558;SDS011;52203;51.998;5.140;2023-07-22T11:49:21;9.82;;;4.47;;
65558;SDS011;52203;51.998;5.140;2023-07-22T11:51:48;7.93;;;4.20;;
65558;SDS011;52203;51.998;5.140;2023-07-22T11:54:14;7.15;;;4.25;;
65558;SDS011;52203;51.998;5.140;2023-07-22T11:56:42;11.30;;;4.13;;
65558;SDS011;52203;51.998;5.140;2023-07-22T11:59:08;7.28;;;4.25;;
65558;SDS011;52203;51.998;5.140;2023-07-22T12:01:33;8.85;;;4.63;;
65558;SDS011;52203;51.998;5.140;2023-07-22T12:03:59;10.15;;;5.18;;
65558;SDS011;52203;51.998;5.140;2023-07-22T12:06:26;8.15;;;4.07;;
65558;SDS011;52203;51.998;5.140;2023-07-22T12:08:52;7.78;;;4.25;;
65558;SDS011;52203;51.998;5.140;2023-07-22T12:11:22;10.23;;;4.60;;
65558;SDS011;52203;51.998;5.140;2023-07-22T12:14:08;7.85;;;4.22;;
65558;SDS011;52203;51.998;5.140;2023-07-22T12:16:38;7.30;;;4.47;;
65558;SDS011;52203;51.998;5.140;2023-07-22T12:19:05;8.93;;;4.20;;
65558;SDS011;52203;51.998;5.140;2023-07-22T12:21:32;9.30;;;5.13;;
65558;SDS011;52203;51.998;5.140;2023-07-22T12:23:58;8.20;;;4.95;;
65558;SDS011;52203;51.998;5.140;2023-07-22T12:26:24;8.02;;;4.30;;
65558;SDS011;52203;51.998;5.140;2023-07-22T12:28:50;8.18;;;4.35;;
65558;SDS011;52203;51.998;5.140;2023-07-22T12:31:15;7.25;;;4.38;;
65558;SDS011;52203;51.998;5.140;2023-07-22T12:33:41;9.27;;;4.03;;
65558;SDS011;52203;51.998;5.140;2023-07-22T12:36:07;7.72;;;4.28;;
65558;SDS011;52203;51.998;5.140;2023-07-22T12:38:33;8.02;;;3.92;;
65558;SDS011;52203;51.998;5.140;2023-07-22T12:40:59;7.82;;;4.25;;
65558;SDS011;52203;51.998;5.140;2023-07-22T12:43:25;5.82;;;3.35;;
65558;SDS011;52203;51.998;5.140;2023-07-22T12:45:51;8.20;;;2.95;;
65558;SDS011;52203;51.998;5.140;2023-07-22T12:48:16;8.00;;;3.53;;
65558;SDS011;52203;51.998;5.140;2023-07-22T12:50:42;7.55;;;3.15;;
65558;SDS011;52203;51.998;5.140;2023-07-22T12:53:13;5.43;;;3.13;;
65558;SDS011;52203;51.998;5.140;2023-07-22T12:55:38;6.90;;;3.05;;
65558;SDS011;52203;51.998;5.140;2023-07-22T12:58:04;6.60;;;3.22;;
65558;SDS011;52203;51.998;5.140;2023-07-22T13:00:30;6.18;;;3.00;;
65558;SDS011;52203;51.998;5.140;2023-07-22T13:02:56;6.85;;;2.72;;
65558;SDS011;52203;51.998;5.140;2023-07-22T13:05:22;4.80;;;2.63;;
65558;SDS011;52203;51.998;5.140;2023-07-22T13:07:48;7.60;;;3.10;;
65558;SDS011;52203;51.998;5.140;2023-07-22T13:10:14;7.47;;;3.15;;
65558;SDS011;52203;51.998;5.140;2023-07-22T13:12:43;6.18;;;3.08;;
65558;SDS011;52203;51.998;5.140;2023-07-22T13:15:08;4.82;;;2.63;;
65558;SDS011;52203;51.998;5.140;2023-07-22T13:17:35;6.00;;;2.58;;
65558;SDS011;52203;51.998;5.140;2023-07-22T13:20:00;4.40;;;2.13;;
65558;SDS011;52203;51.998;5.140;2023-07-22T13:22:26;4.75;;;2.13;;
65558;SDS011;52203;51.998;5.140;2023-07-22T13:24:51;4.50;;;1.90;;
65558;SDS011;52203;51.998;5.140;2023-07-22T13:27:18;6.43;;;2.20;;
65558;SDS011;52203;51.998;5.140;2023-07-22T13:29:43;3.28;;;2.05;;
65558;SDS011;52203;51.998;5.140;2023-07-22T13:32:10;3.85;;;2.17;;
65558;SDS011;52203;51.998;5.140;2023-07-22T13:34:36;4.28;;;2.25;;
65558;SDS011;52203;51.998;5.140;2023-07-22T13:37:01;3.85;;;2.30;;
65558;SDS011;52203;51.998;5.140;2023-07-22T13:39:28;4.78;;;2.20;;
65558;SDS011;52203;51.998;5.140;2023-07-22T13:41:53;6.00;;;2.10;;
65558;SDS011;52203;51.998;5.140;2023-07-22T13:44:19;4.80;;;2.55;;
65558;SDS011;52203;51.998;5.140;2023-07-22T13:46:44;5.68;;;2.53;;
65558;SDS011;52203;51.998;5.140;2023-07-22T13:49:10;5.72;;;3.03;;
65558;SDS011;52203;51.998;5.140;2023-07-22T13:51:36;4.43;;;2.15;;
65558;SDS011;52203;51.998;5.140;2023-07-22T13:54:01;3.80;;;2.05;;
65558;SDS011;52203;51.998;5.140;2023-07-22T13:56:28;4.88;;;2.05;;
65558;SDS011;52203;51.998;5.140;2023-07-22T13:58:54;3.58;;;2.10;;
65558;SDS011;52203;51.998;5.140;2023-07-22T14:01:21;5.35;;;2.28;;
65558;SDS011;52203;51.998;5.140;2023-07-22T14:03:50;4.85;;;2.10;;
65558;SDS011;52203;51.998;5.140;2023-07-22T14:06:15;3.35;;;1.63;;
65558;SDS011;52203;51.998;5.140;2023-07-22T14:08:43;4.55;;;2.15;;
65558;SDS011;52203;51.998;5.140;2023-07-22T14:11:09;4.35;;;1.90;;
65558;SDS011;52203;51.998;5.140;2023-07-22T14:13:36;3.78;;;1.77;;
65558;SDS011;52203;51.998;5.140;2023-07-22T14:16:03;5.28;;;2.17;;
65558;SDS011;52203;51.998;5.140;2023-07-22T14:21:39;3.92;;;2.30;;
65558;SDS011;52203;51.998;5.140;2023-07-22T14:24:04;3.92;;;2.15;;
65558;SDS011;52203;51.998;5.140;2023-07-22T14:26:30;3.75;;;1.90;;
65558;SDS011;52203;51.998;5.140;2023-07-22T14:28:55;4.13;;;2.17;;
65558;SDS011;52203;51.998;5.140;2023-07-22T14:31:21;5.22;;;2.35;;
65558;SDS011;52203;51.998;5.140;2023-07-22T14:33:46;4.60;;;2.13;;
65558;SDS011;52203;51.998;5.140;2023-07-22T14:36:12;3.78;;;2.08;;
65558;SDS011;52203;51.998;5.140;2023-07-22T14:38:37;3.92;;;1.98;;
65558;SDS011;52203;51.998;5.140;2023-07-22T14:41:03;5.63;;;2.05;;
65558;SDS011;52203;51.998;5.140;2023-07-22T14:43:28;5.82;;;2.45;;
65558;SDS011;52203;51.998;5.140;2023-07-22T14:45:54;3.95;;;1.90;;